createdAt,value
2019-04-14T00:01:26.096Z,99.90
2019-04-14T00:04:31.564Z,99.90
2019-04-14T00:07:36.286Z,99.90
2019-04-14T00:10:40.462Z,99.90
2019-04-14T00:13:45.534Z,99.90
2019-04-14T00:16:49.466Z,99.90
2019-04-14T00:19:54.432Z,99.90
2019-04-14T00:22:58.399Z,99.90
2019-04-14T00:26:27.668Z,99.90
2019-04-14T00:29:32.688Z,99.90
2019-04-14T00:32:38.439Z,99.90
2019-04-14T00:35:49.999Z,99.90
2019-04-14T00:38:54.818Z,99.90
2019-04-14T00:42:16.944Z,99.90
2019-04-14T00:45:37.060Z,99.90
2019-04-14T00:48:34.248Z,99.90
2019-04-14T00:51:39.408Z,99.90
2019-04-14T00:54:43.726Z,99.90
2019-04-14T00:57:48.661Z,99.90
2019-04-14T01:00:53.794Z,99.90
2019-04-14T01:03:59.056Z,99.90
2019-04-14T01:07:02.948Z,99.90
2019-04-14T01:10:08.099Z,99.90
2019-04-14T01:13:13.191Z,99.90
2019-04-14T01:16:20.858Z,99.90
2019-04-14T01:19:24.353Z,99.90
2019-04-14T01:22:29.256Z,99.90
2019-04-14T01:25:34.567Z,99.90
2019-04-14T01:28:39.604Z,99.90
2019-04-14T01:31:44.617Z,99.90
2019-04-14T01:34:51.129Z,99.90
2019-04-14T01:37:55.007Z,99.90
2019-04-14T01:40:59.942Z,99.90
2019-04-14T01:44:04.642Z,99.90
2019-04-14T01:47:09.456Z,99.90
2019-04-14T01:50:13.488Z,99.90
2019-04-14T01:53:22.893Z,99.90
2019-04-14T01:56:45.024Z,99.90
2019-04-14T01:59:48.899Z,99.90
2019-04-14T02:02:53.114Z,99.90
2019-04-14T02:05:58.274Z,99.90
2019-04-14T02:09:03.279Z,99.90
2019-04-14T02:12:08.339Z,99.90
2019-04-14T02:15:13.363Z,99.90
2019-04-14T02:18:18.454Z,99.90
2019-04-14T02:21:23.732Z,99.90
2019-04-14T02:24:28.924Z,99.90
2019-04-14T02:27:33.854Z,99.90
2019-04-14T02:30:44.214Z,99.90
2019-04-14T02:34:12.989Z,99.90
2019-04-14T02:43:31.917Z,99.90
2019-04-14T02:46:38.244Z,99.90
2019-04-14T02:49:44.561Z,99.90
2019-04-14T02:52:41.605Z,99.90
2019-04-14T02:55:48.723Z,99.90
2019-04-14T02:59:06.002Z,99.90
2019-04-14T03:02:20.090Z,99.90
2019-04-14T03:05:04.161Z,99.90
2019-04-14T03:08:11.462Z,99.90
2019-04-14T03:11:18.240Z,99.90
2019-04-14T03:14:25.460Z,99.90
2019-04-14T03:20:55.690Z,99.90
2019-04-14T03:27:22.720Z,99.90
2019-04-14T03:34:07.582Z,99.90
2019-04-14T03:39:46.056Z,99.90
2019-04-14T03:42:54.290Z,99.90
2019-04-14T03:45:59.218Z,99.90
2019-04-14T03:52:02.447Z,99.90
2019-04-14T03:55:05.778Z,99.90
2019-04-14T03:57:56.331Z,99.90
2019-04-14T04:01:00.333Z,99.90
2019-04-14T04:04:05.259Z,99.90
2019-04-14T04:07:10.243Z,99.90
2019-04-14T04:10:15.773Z,99.90
2019-04-14T04:13:19.684Z,99.90
2019-04-14T04:16:25.070Z,99.90
2019-04-14T04:19:31.570Z,99.90
2019-04-14T04:22:41.155Z,99.90
2019-04-14T04:25:49.393Z,99.90
2019-04-14T04:28:58.332Z,99.90
2019-04-14T04:32:09.987Z,99.90
2019-04-14T04:35:15.761Z,99.90
2019-04-14T04:38:26.998Z,99.90
2019-04-14T04:41:31.789Z,99.90
2019-04-14T04:44:35.759Z,99.90
2019-04-14T04:47:40.507Z,99.90
2019-04-14T04:50:45.379Z,99.90
2019-04-14T04:53:50.514Z,99.90
2019-04-14T04:56:54.441Z,99.90
2019-04-14T04:59:58.276Z,99.90
2019-04-14T05:03:02.148Z,99.90
2019-04-14T05:06:09.150Z,99.90
2019-04-14T05:09:18.797Z,99.90
2019-04-14T05:12:33.190Z,99.90
2019-04-14T05:15:38.613Z,99.90
2019-04-14T05:18:42.512Z,99.90
2019-04-14T05:21:47.309Z,99.90
2019-04-14T05:24:51.234Z,99.90
2019-04-14T05:27:55.846Z,99.90
2019-04-14T05:31:01.096Z,99.90
2019-04-14T05:34:06.411Z,99.90
2019-04-14T05:37:10.328Z,99.90
2019-04-14T05:40:14.568Z,99.90
2019-04-14T05:43:30.428Z,99.90
2019-04-14T05:46:25.155Z,99.90
2019-04-14T05:49:38.078Z,99.90
2019-04-14T05:52:34.627Z,99.90
2019-04-14T05:55:39.459Z,99.90
2019-04-14T05:58:44.621Z,99.90
2019-04-14T06:01:48.819Z,99.90
2019-04-14T06:04:52.856Z,99.90
2019-04-14T06:07:56.684Z,99.90
2019-04-14T06:11:00.596Z,99.90
2019-04-14T06:14:05.506Z,99.90
2019-04-14T06:17:09.389Z,99.90
2019-04-14T06:20:13.370Z,99.90
2019-04-14T06:23:17.244Z,96.00
2019-04-14T06:26:21.123Z,85.90
2019-04-14T06:29:25.006Z,62.50
2019-04-14T06:32:39.324Z,54.40
2019-04-14T06:35:47.501Z,54.50
2019-04-14T06:38:52.984Z,49.80
2019-04-14T06:41:56.824Z,49.30
2019-04-14T06:45:00.720Z,50.00
2019-04-14T06:48:04.581Z,65.00
2019-04-14T06:51:08.475Z,61.70
2019-04-14T06:54:12.335Z,72.90
2019-04-14T06:57:16.240Z,87.80
2019-04-14T07:00:20.167Z,95.80
2019-04-14T07:03:24.151Z,99.90
2019-04-14T07:06:28.076Z,98.10
2019-04-14T07:09:31.913Z,96.40
2019-04-14T07:12:35.769Z,95.10
2019-04-14T07:15:39.625Z,93.00
2019-04-14T07:18:43.436Z,91.40
2019-04-14T07:21:47.395Z,94.00
2019-04-14T07:24:51.250Z,97.40
2019-04-14T07:27:55.180Z,99.90
2019-04-14T07:31:09.636Z,99.90
2019-04-14T07:34:31.418Z,99.90
2019-04-14T07:37:45.685Z,99.90
2019-04-14T07:41:06.071Z,99.90
2019-04-14T07:44:26.539Z,99.90
2019-04-14T07:47:31.950Z,99.90
2019-04-14T07:50:37.371Z,97.00
2019-04-14T07:53:51.635Z,98.80
2019-04-14T07:57:05.636Z,95.80
2019-04-14T08:00:11.491Z,99.90
2019-04-14T08:03:29.018Z,98.50
2019-04-14T08:06:33.421Z,99.90
2019-04-14T08:09:37.676Z,96.40
2019-04-14T08:12:41.644Z,96.40
2019-04-14T08:15:45.544Z,93.90
2019-04-14T08:18:49.373Z,97.50
2019-04-14T08:21:54.221Z,99.90
2019-04-14T08:24:58.132Z,99.90
2019-04-14T08:28:01.994Z,98.00
2019-04-14T08:31:05.854Z,99.00
2019-04-14T08:34:09.749Z,98.50
2019-04-14T08:37:13.655Z,99.90
2019-04-14T08:40:18.653Z,99.20
2019-04-14T08:43:40.428Z,98.00
2019-04-14T08:46:45.901Z,98.50
2019-04-14T08:49:54.274Z,99.00
2019-04-14T08:53:08.768Z,99.90
2019-04-14T08:56:17.054Z,98.00
2019-04-14T08:59:38.646Z,99.10
2019-04-14T09:02:46.650Z,98.50
2019-04-14T09:05:52.038Z,98.50
2019-04-14T09:09:13.761Z,98.10
2019-04-14T09:12:19.222Z,98.30
2019-04-14T09:15:23.256Z,97.90
2019-04-14T09:18:27.126Z,99.10
2019-04-14T09:21:30.967Z,99.90
2019-04-14T09:24:34.811Z,99.90
2019-04-14T09:27:38.681Z,99.90
2019-04-14T09:30:42.527Z,99.90
2019-04-14T09:33:46.392Z,99.90
2019-04-14T09:36:50.230Z,99.90
2019-04-14T09:39:54.134Z,99.90
2019-04-14T09:42:57.954Z,99.90
2019-04-14T09:46:01.860Z,99.90
2019-04-14T09:49:05.755Z,99.90
2019-04-14T09:52:09.587Z,99.90
2019-04-14T09:55:13.513Z,99.90
2019-04-14T09:58:17.368Z,99.90
2019-04-14T10:01:21.234Z,99.90
2019-04-14T10:04:25.122Z,99.90
2019-04-14T10:07:29.002Z,99.90
2019-04-14T10:10:32.872Z,99.90
2019-04-14T10:13:36.739Z,99.90
2019-04-14T10:16:40.615Z,99.90
2019-04-14T10:19:44.475Z,99.90
2019-04-14T10:22:48.396Z,99.90
2019-04-14T10:25:52.265Z,99.90
2019-04-14T10:28:56.167Z,99.60
2019-04-14T10:32:00.003Z,99.90
2019-04-14T10:35:04.603Z,99.90
2019-04-14T10:38:08.474Z,99.90
2019-04-14T10:41:12.398Z,99.90
2019-04-14T10:44:16.314Z,99.90
2019-04-14T10:47:20.230Z,99.10
2019-04-14T10:50:30.750Z,99.90
2019-04-14T10:53:29.633Z,98.90
2019-04-14T10:56:33.522Z,99.00
2019-04-14T10:59:37.354Z,97.20
2019-04-14T11:02:41.253Z,98.50
2019-04-14T11:05:46.682Z,97.60
2019-04-14T11:08:50.600Z,98.20
2019-04-14T11:11:54.437Z,96.80
2019-04-14T11:14:58.319Z,97.10
2019-04-14T11:18:02.164Z,94.80
2019-04-14T11:21:06.085Z,97.10
2019-04-14T11:24:10.201Z,98.60
2019-04-14T11:27:14.049Z,98.70
2019-04-14T11:30:19.556Z,95.50
2019-04-14T11:33:24.941Z,94.00
2019-04-14T11:36:48.730Z,94.30
2019-04-14T11:39:52.562Z,94.60
2019-04-14T11:42:56.473Z,93.60
2019-04-14T11:46:03.523Z,93.60
2019-04-14T11:49:06.445Z,94.40
2019-04-14T11:52:10.286Z,93.70
2019-04-14T11:55:14.181Z,92.90
2019-04-14T11:58:18.016Z,93.10
2019-04-14T12:01:38.470Z,91.90
2019-04-14T12:04:43.981Z,95.10
2019-04-14T12:07:58.367Z,93.20
2019-04-14T12:11:02.466Z,94.10
2019-04-14T12:14:06.314Z,90.70
2019-04-14T12:17:10.181Z,91.80
2019-04-14T12:20:14.394Z,91.20
2019-04-14T12:23:18.278Z,88.10
2019-04-14T12:26:22.176Z,84.50
2019-04-14T12:29:26.162Z,91.50
2019-04-14T12:32:30.569Z,90.00
2019-04-14T12:35:34.455Z,91.70
2019-04-14T12:38:38.338Z,88.70
2019-04-14T12:41:43.796Z,88.90
2019-04-14T12:44:49.255Z,92.50
2019-04-14T12:48:03.605Z,86.80
2019-04-14T12:51:09.074Z,85.10
2019-04-14T12:54:14.011Z,82.10
2019-04-14T12:57:19.759Z,81.90
2019-04-14T13:00:37.534Z,82.30
2019-04-14T13:03:42.054Z,81.70
2019-04-14T13:06:46.094Z,85.70
2019-04-14T13:09:49.945Z,84.90
2019-04-14T13:12:53.821Z,81.50
2019-04-14T13:15:57.726Z,85.60
2019-04-14T13:19:01.551Z,80.10
2019-04-14T13:22:05.568Z,82.60
2019-04-14T13:25:09.527Z,81.10
2019-04-14T13:28:13.389Z,78.40
2019-04-14T13:31:17.280Z,78.70
2019-04-14T13:34:21.210Z,73.30
2019-04-14T13:37:25.084Z,74.00
2019-04-14T13:40:28.926Z,73.90
2019-04-14T13:43:32.846Z,80.90
2019-04-14T13:46:36.717Z,74.70
2019-04-14T13:49:40.616Z,68.70
2019-04-14T13:52:47.179Z,71.90
2019-04-14T13:55:50.054Z,63.80
2019-04-14T13:58:53.967Z,67.90
2019-04-14T14:01:58.059Z,67.70
2019-04-14T14:05:02.036Z,68.60
2019-04-14T14:08:06.211Z,70.90
2019-04-14T14:11:17.751Z,67.70
2019-04-14T14:14:35.290Z,71.80
2019-04-14T14:17:46.539Z,69.00
2019-04-14T14:24:18.376Z,69.30
2019-04-14T14:27:24.157Z,68.30
2019-04-14T14:33:31.704Z,67.50
2019-04-14T14:36:35.575Z,70.90
2019-04-14T14:39:39.456Z,69.70
2019-04-14T14:42:43.448Z,70.80
2019-04-14T14:48:59.523Z,70.90
2019-04-14T14:52:10.834Z,67.80
2019-04-14T14:58:18.251Z,68.70
2019-04-14T15:01:22.161Z,65.40
2019-04-14T15:04:26.059Z,65.20
2019-04-14T15:07:29.925Z,62.30
2019-04-14T15:10:33.814Z,68.10
2019-04-14T15:13:37.675Z,64.60
2019-04-14T15:16:41.675Z,60.30
2019-04-14T15:19:45.594Z,62.40
2019-04-14T15:22:52.213Z,63.40
2019-04-14T15:25:55.023Z,66.50
2019-04-14T15:28:58.932Z,67.80
2019-04-14T15:32:03.889Z,64.90
2019-04-14T15:35:07.874Z,65.30
2019-04-14T15:38:11.711Z,60.90
2019-04-14T15:41:15.622Z,66.20
2019-04-14T15:44:19.505Z,62.40
2019-04-14T15:47:23.344Z,62.90
2019-04-14T15:50:27.214Z,64.80
2019-04-14T15:53:37.774Z,71.10
2019-04-14T15:56:41.178Z,63.60
2019-04-14T15:59:46.729Z,62.80
2019-04-14T16:03:01.104Z,58.40
2019-04-14T16:06:23.216Z,62.30
2019-04-14T16:09:37.642Z,61.30
2019-04-14T16:12:49.205Z,57.70
2019-04-14T16:16:06.909Z,58.10
2019-04-14T16:19:12.421Z,64.00
2019-04-14T16:22:16.333Z,63.60
2019-04-14T16:25:21.039Z,63.00
2019-04-14T16:28:29.459Z,58.70
2019-04-14T16:31:51.074Z,58.40
2019-04-14T16:34:59.501Z,65.60
2019-04-14T16:38:03.451Z,63.30
2019-04-14T16:41:09.948Z,61.70
2019-04-14T16:44:14.143Z,66.20
2019-04-14T16:47:19.315Z,65.50
2019-04-14T16:50:23.295Z,65.70
2019-04-14T16:53:29.095Z,65.00
2019-04-14T16:56:50.950Z,66.40
2019-04-14T16:59:55.091Z,64.80
2019-04-14T17:02:59.039Z,66.80
2019-04-14T17:06:03.244Z,67.60
2019-04-14T17:09:08.497Z,69.00
2019-04-14T17:12:12.559Z,69.20
2019-04-14T17:15:19.765Z,69.90
2019-04-14T17:18:26.430Z,71.80
2019-04-14T17:21:38.802Z,76.90
2019-04-14T17:24:44.616Z,75.90
2019-04-14T17:27:50.261Z,74.80
2019-04-14T17:30:55.745Z,73.10
2019-04-14T17:34:01.328Z,74.60
2019-04-14T17:37:15.590Z,76.40
2019-04-14T17:40:21.120Z,78.00
2019-04-14T17:43:26.783Z,80.70
2019-04-14T17:46:38.131Z,86.10
2019-04-14T17:49:52.843Z,86.50
2019-04-14T17:53:16.545Z,93.90
2019-04-14T17:56:24.935Z,96.50
2019-04-14T17:59:33.301Z,92.60
2019-04-14T18:02:44.549Z,92.10
2019-04-14T18:05:50.100Z,91.40
2019-04-14T18:09:07.714Z,97.40
2019-04-14T18:12:13.271Z,97.10
2019-04-14T18:15:18.809Z,95.20
2019-04-14T18:18:24.374Z,93.60
2019-04-14T18:21:28.265Z,94.90
2019-04-14T18:24:42.262Z,94.30
2019-04-14T18:27:39.405Z,94.60
2019-04-14T18:30:44.921Z,94.80
2019-04-14T18:34:02.384Z,94.30
2019-04-14T18:37:07.896Z,95.00
2019-04-14T18:40:19.272Z,94.50
2019-04-14T18:43:24.789Z,95.40
2019-04-14T18:46:46.653Z,95.50
2019-04-14T18:49:55.166Z,95.20
2019-04-14T18:53:03.414Z,95.40
2019-04-14T18:56:08.886Z,95.90
2019-04-14T18:59:14.377Z,95.70
2019-04-14T19:02:18.450Z,96.20
2019-04-14T19:05:22.340Z,96.60
2019-04-14T19:08:26.260Z,98.50
2019-04-14T19:11:31.758Z,96.50
2019-04-14T19:14:37.256Z,99.30
2019-04-14T19:17:42.781Z,97.50
2019-04-14T19:20:48.229Z,99.60
2019-04-14T19:23:52.210Z,99.90
2019-04-14T19:26:56.094Z,98.70
2019-04-14T19:30:00.035Z,99.20
2019-04-14T19:33:03.918Z,99.00
2019-04-14T19:36:07.943Z,99.00
2019-04-14T19:39:11.774Z,99.10
2019-04-14T19:42:15.670Z,98.50
2019-04-14T19:45:19.519Z,99.30
2019-04-14T19:48:23.387Z,99.40
2019-04-14T19:51:27.285Z,99.90
2019-04-14T19:54:31.213Z,99.90
2019-04-14T19:57:35.098Z,99.90
2019-04-14T20:00:38.923Z,99.90
2019-04-14T20:03:42.864Z,99.90
2019-04-14T20:06:46.673Z,99.90
2019-04-14T20:09:50.664Z,99.90
2019-04-14T20:12:54.503Z,99.90
2019-04-14T20:16:05.733Z,99.90
2019-04-14T20:19:29.360Z,99.90
2019-04-14T20:22:50.709Z,99.90
2019-04-14T20:26:02.140Z,99.90
2019-04-14T20:29:10.510Z,99.90
2019-04-14T20:32:19.190Z,99.90
2019-04-14T20:35:23.099Z,99.90
2019-04-14T20:38:26.926Z,99.90
2019-04-14T20:41:30.916Z,99.90
2019-04-14T20:44:35.417Z,99.90
2019-04-14T20:47:39.267Z,99.90
2019-04-14T20:50:43.211Z,99.90
2019-04-14T20:53:47.124Z,99.90
2019-04-14T20:56:51.029Z,99.90
2019-04-14T20:59:54.969Z,99.90
2019-04-14T21:03:03.205Z,99.90
2019-04-14T21:06:11.240Z,99.90
2019-04-14T21:09:16.736Z,99.90
2019-04-14T21:12:22.196Z,99.90
2019-04-14T21:15:30.462Z,99.90
2019-04-14T21:18:38.844Z,99.90
2019-04-14T21:21:53.504Z,99.90
2019-04-14T21:25:01.554Z,99.90
2019-04-14T21:28:12.709Z,99.90
2019-04-14T21:31:20.980Z,99.90
2019-04-14T21:34:26.435Z,99.90
2019-04-14T21:37:48.204Z,99.90
2019-04-14T21:40:56.186Z,99.90
2019-04-14T21:44:00.124Z,99.90
2019-04-14T21:47:04.725Z,99.90
2019-04-14T21:50:08.980Z,99.90
2019-04-14T21:53:12.805Z,99.90
2019-04-14T21:56:16.680Z,99.90
2019-04-14T21:59:30.839Z,99.90
2019-04-14T22:02:52.421Z,99.90
2019-04-14T22:05:57.984Z,99.90
2019-04-14T22:09:01.862Z,99.90
2019-04-14T22:12:07.159Z,99.90
2019-04-14T22:15:12.655Z,99.90
2019-04-14T22:18:16.690Z,99.90
2019-04-14T22:21:20.616Z,99.90
2019-04-14T22:24:24.465Z,99.90
2019-04-14T22:27:28.345Z,99.90
2019-04-14T22:30:32.182Z,99.90
2019-04-14T22:33:36.026Z,99.90
2019-04-14T22:36:39.880Z,99.90
2019-04-14T22:39:43.746Z,99.90
2019-04-14T22:42:47.626Z,99.90
2019-04-14T22:45:51.457Z,99.90
2019-04-14T22:48:55.414Z,99.90
2019-04-14T22:51:59.335Z,99.90
2019-04-14T22:55:04.989Z,99.90
2019-04-14T22:58:08.955Z,99.90
2019-04-14T23:01:20.389Z,99.90
2019-04-14T23:04:28.764Z,99.90
2019-04-14T23:07:49.444Z,99.90
2019-04-14T23:10:57.746Z,99.90
2019-04-14T23:14:19.474Z,99.90
2019-04-14T23:17:24.968Z,99.90
2019-04-14T23:20:30.463Z,99.90
2019-04-14T23:23:35.833Z,99.90
2019-04-14T23:26:51.717Z,99.90
2019-04-14T23:29:45.210Z,99.90
2019-04-14T23:32:49.108Z,99.90
2019-04-14T23:35:52.946Z,99.90
2019-04-14T23:38:56.844Z,99.90
2019-04-14T23:42:00.715Z,99.90
2019-04-14T23:45:08.774Z,99.90
2019-04-14T23:48:12.655Z,99.90
2019-04-14T23:51:16.524Z,99.90
2019-04-14T23:54:20.364Z,99.90
2019-04-14T23:57:24.219Z,99.90
